sensor_id;sensor_type;location;lat;lon;timestamp;P1;durP1;ratioP1;P2;durP2;ratioP2
74707;SDS011;63360;50.104;8.074;2023-05-28T00:01:38;6.80;;;2.65;;
74707;SDS011;63360;50.104;8.074;2023-05-28T00:04:04;5.70;;;2.57;;
74707;SDS011;63360;50.104;8.074;2023-05-28T00:06:31;8.13;;;2.85;;
74707;SDS011;63360;50.104;8.074;2023-05-28T00:08:57;7.60;;;2.90;;
74707;SDS011;63360;50.104;8.074;2023-05-28T00:11:24;8.73;;;2.80;;
74707;SDS011;63360;50.104;8.074;2023-05-28T00:13:52;6.40;;;2.70;;
74707;SDS011;63360;50.104;8.074;2023-05-28T00:16:18;6.27;;;2.60;;
74707;SDS011;63360;50.104;8.074;2023-05-28T00:18:45;8.25;;;2.63;;
74707;SDS011;63360;50.104;8.074;2023-05-28T00:21:12;8.52;;;3.00;;
74707;SDS011;63360;50.104;8.074;2023-05-28T00:23:39;7.72;;;2.72;;
74707;SDS011;63360;50.104;8.074;2023-05-28T00:26:07;8.48;;;2.70;;
74707;SDS011;63360;50.104;8.074;2023-05-28T00:28:33;7.87;;;2.30;;
74707;SDS011;63360;50.104;8.074;2023-05-28T00:30:59;7.40;;;2.75;;
74707;SDS011;63360;50.104;8.074;2023-05-28T00:33:26;5.13;;;2.30;;
74707;SDS011;63360;50.104;8.074;2023-05-28T00:35:53;8.20;;;2.70;;
74707;SDS011;63360;50.104;8.074;2023-05-28T00:38:22;6.40;;;2.42;;
74707;SDS011;63360;50.104;8.074;2023-05-28T00:40:49;5.60;;;2.33;;
74707;SDS011;63360;50.104;8.074;2023-05-28T00:43:15;6.55;;;2.45;;
74707;SDS011;63360;50.104;8.074;2023-05-28T00:45:42;6.93;;;2.45;;
74707;SDS011;63360;50.104;8.074;2023-05-28T00:48:09;5.72;;;2.35;;
74707;SDS011;63360;50.104;8.074;2023-05-28T00:50:35;6.38;;;2.20;;
74707;SDS011;63360;50.104;8.074;2023-05-28T00:53:04;8.70;;;2.70;;
74707;SDS011;63360;50.104;8.074;2023-05-28T00:55:31;7.60;;;2.70;;
74707;SDS011;63360;50.104;8.074;2023-05-28T00:57:57;7.45;;;2.67;;
74707;SDS011;63360;50.104;8.074;2023-05-28T01:00:32;6.57;;;2.38;;
74707;SDS011;63360;50.104;8.074;2023-05-28T01:02:59;8.95;;;2.85;;
74707;SDS011;63360;50.104;8.074;2023-05-28T01:05:26;7.30;;;2.43;;
74707;SDS011;63360;50.104;8.074;2023-05-28T01:07:53;7.60;;;2.50;;
74707;SDS011;63360;50.104;8.074;2023-05-28T01:10:19;8.50;;;2.35;;
74707;SDS011;63360;50.104;8.074;2023-05-28T01:12:46;7.15;;;2.35;;
74707;SDS011;63360;50.104;8.074;2023-05-28T01:15:13;5.70;;;2.10;;
74707;SDS011;63360;50.104;8.074;2023-05-28T01:17:40;8.43;;;2.40;;
74707;SDS011;63360;50.104;8.074;2023-05-28T01:20:07;5.03;;;2.10;;
74707;SDS011;63360;50.104;8.074;2023-05-28T01:22:40;7.22;;;2.55;;
74707;SDS011;63360;50.104;8.074;2023-05-28T01:25:14;6.45;;;2.65;;
74707;SDS011;63360;50.104;8.074;2023-05-28T01:27:42;6.65;;;2.28;;
74707;SDS011;63360;50.104;8.074;2023-05-28T01:30:09;5.50;;;2.33;;
74707;SDS011;63360;50.104;8.074;2023-05-28T01:32:38;5.85;;;2.28;;
74707;SDS011;63360;50.104;8.074;2023-05-28T01:35:05;7.15;;;2.22;;
74707;SDS011;63360;50.104;8.074;2023-05-28T01:37:33;8.00;;;2.38;;
74707;SDS011;63360;50.104;8.074;2023-05-28T01:40:03;6.55;;;2.33;;
74707;SDS011;63360;50.104;8.074;2023-05-28T01:42:31;6.67;;;2.47;;
74707;SDS011;63360;50.104;8.074;2023-05-28T01:44:59;5.18;;;2.10;;
74707;SDS011;63360;50.104;8.074;2023-05-28T01:47:28;5.65;;;2.15;;
74707;SDS011;63360;50.104;8.074;2023-05-28T01:49:55;5.72;;;2.20;;
74707;SDS011;63360;50.104;8.074;2023-05-28T01:52:22;6.47;;;2.28;;
74707;SDS011;63360;50.104;8.074;2023-05-28T01:54:48;7.43;;;2.30;;
74707;SDS011;63360;50.104;8.074;2023-05-28T01:57:15;6.60;;;2.45;;
74707;SDS011;63360;50.104;8.074;2023-05-28T01:59:41;6.90;;;2.35;;
74707;SDS011;63360;50.104;8.074;2023-05-28T02:02:08;6.32;;;2.30;;
74707;SDS011;63360;50.104;8.074;2023-05-28T02:04:35;6.07;;;2.00;;
74707;SDS011;63360;50.104;8.074;2023-05-28T02:07:01;7.30;;;2.23;;
74707;SDS011;63360;50.104;8.074;2023-05-28T02:09:27;6.07;;;2.13;;
74707;SDS011;63360;50.104;8.074;2023-05-28T02:11:54;8.02;;;2.60;;
74707;SDS011;63360;50.104;8.074;2023-05-28T02:14:20;6.88;;;2.20;;
74707;SDS011;63360;50.104;8.074;2023-05-28T02:16:47;7.85;;;2.50;;
74707;SDS011;63360;50.104;8.074;2023-05-28T02:19:16;7.23;;;2.20;;
74707;SDS011;63360;50.104;8.074;2023-05-28T02:21:43;8.85;;;2.40;;
74707;SDS011;63360;50.104;8.074;2023-05-28T02:24:09;8.18;;;2.53;;
74707;SDS011;63360;50.104;8.074;2023-05-28T02:26:36;6.40;;;2.30;;
74707;SDS011;63360;50.104;8.074;2023-05-28T02:29:03;7.15;;;2.20;;
74707;SDS011;63360;50.104;8.074;2023-05-28T02:31:29;5.03;;;2.20;;
74707;SDS011;63360;50.104;8.074;2023-05-28T02:33:56;5.63;;;2.10;;
74707;SDS011;63360;50.104;8.074;2023-05-28T02:36:22;6.15;;;2.40;;
74707;SDS011;63360;50.104;8.074;2023-05-28T02:38:49;7.63;;;2.05;;
74707;SDS011;63360;50.104;8.074;2023-05-28T02:41:16;7.85;;;2.20;;
74707;SDS011;63360;50.104;8.074;2023-05-28T02:43:42;5.83;;;2.10;;
74707;SDS011;63360;50.104;8.074;2023-05-28T02:46:10;6.35;;;1.90;;
74707;SDS011;63360;50.104;8.074;2023-05-28T02:48:36;9.38;;;2.20;;
74707;SDS011;63360;50.104;8.074;2023-05-28T02:51:03;12.45;;;2.83;;
74707;SDS011;63360;50.104;8.074;2023-05-28T02:53:30;5.20;;;2.35;;
74707;SDS011;63360;50.104;8.074;2023-05-28T02:55:58;4.50;;;2.27;;
74707;SDS011;63360;50.104;8.074;2023-05-28T02:58:24;6.70;;;2.35;;
74707;SDS011;63360;50.104;8.074;2023-05-28T03:00:51;6.88;;;2.80;;
74707;SDS011;63360;50.104;8.074;2023-05-28T03:03:17;5.68;;;2.15;;
74707;SDS011;63360;50.104;8.074;2023-05-28T03:05:44;5.63;;;2.15;;
74707;SDS011;63360;50.104;8.074;2023-05-28T03:08:10;5.20;;;2.27;;
74707;SDS011;63360;50.104;8.074;2023-05-28T03:10:37;8.70;;;2.67;;
74707;SDS011;63360;50.104;8.074;2023-05-28T03:13:03;7.00;;;2.50;;
74707;SDS011;63360;50.104;8.074;2023-05-28T03:15:30;6.20;;;2.60;;
74707;SDS011;63360;50.104;8.074;2023-05-28T03:17:57;6.25;;;2.40;;
74707;SDS011;63360;50.104;8.074;2023-05-28T03:20:24;6.73;;;2.67;;
74707;SDS011;63360;50.104;8.074;2023-05-28T03:22:54;5.75;;;2.40;;
74707;SDS011;63360;50.104;8.074;2023-05-28T03:25:22;7.55;;;2.40;;
74707;SDS011;63360;50.104;8.074;2023-05-28T03:27:51;8.68;;;3.00;;
74707;SDS011;63360;50.104;8.074;2023-05-28T03:30:18;8.70;;;2.50;;
74707;SDS011;63360;50.104;8.074;2023-05-28T03:32:44;7.60;;;2.60;;
74707;SDS011;63360;50.104;8.074;2023-05-28T03:35:11;8.63;;;2.78;;
74707;SDS011;63360;50.104;8.074;2023-05-28T03:37:37;9.77;;;2.92;;
74707;SDS011;63360;50.104;8.074;2023-05-28T03:40:04;7.65;;;3.08;;
74707;SDS011;63360;50.104;8.074;2023-05-28T03:42:31;7.47;;;2.78;;
74707;SDS011;63360;50.104;8.074;2023-05-28T03:44:57;6.83;;;2.50;;
74707;SDS011;63360;50.104;8.074;2023-05-28T03:47:24;7.50;;;2.60;;
74707;SDS011;63360;50.104;8.074;2023-05-28T03:49:52;7.57;;;2.83;;
74707;SDS011;63360;50.104;8.074;2023-05-28T03:52:18;6.97;;;2.60;;
74707;SDS011;63360;50.104;8.074;2023-05-28T03:54:45;5.93;;;2.67;;
74707;SDS011;63360;50.104;8.074;2023-05-28T03:57:11;7.73;;;2.63;;
74707;SDS011;63360;50.104;8.074;2023-05-28T03:59:38;5.45;;;2.38;;
74707;SDS011;63360;50.104;8.074;2023-05-28T04:02:04;6.93;;;2.83;;
74707;SDS011;63360;50.104;8.074;2023-05-28T04:04:31;7.82;;;2.72;;
74707;SDS011;63360;50.104;8.074;2023-05-28T04:06:57;6.28;;;2.55;;
74707;SDS011;63360;50.104;8.074;2023-05-28T04:09:24;7.73;;;2.50;;
74707;SDS011;63360;50.104;8.074;2023-05-28T04:11:50;7.15;;;2.72;;
74707;SDS011;63360;50.104;8.074;2023-05-28T04:14:17;7.07;;;2.58;;
74707;SDS011;63360;50.104;8.074;2023-05-28T04:16:43;6.35;;;2.63;;
74707;SDS011;63360;50.104;8.074;2023-05-28T04:19:10;7.60;;;2.53;;
74707;SDS011;63360;50.104;8.074;2023-05-28T04:21:36;6.60;;;2.43;;
74707;SDS011;63360;50.104;8.074;2023-05-28T04:24:03;6.53;;;2.55;;
74707;SDS011;63360;50.104;8.074;2023-05-28T04:26:30;11.93;;;2.90;;
74707;SDS011;63360;50.104;8.074;2023-05-28T04:28:56;8.57;;;2.90;;
74707;SDS011;63360;50.104;8.074;2023-05-28T04:31:22;6.50;;;2.53;;
74707;SDS011;63360;50.104;8.074;2023-05-28T04:33:53;5.87;;;2.50;;
74707;SDS011;63360;50.104;8.074;2023-05-28T04:36:20;7.38;;;2.88;;
74707;SDS011;63360;50.104;8.074;2023-05-28T04:38:46;5.82;;;2.78;;
74707;SDS011;63360;50.104;8.074;2023-05-28T04:41:13;6.82;;;2.72;;
74707;SDS011;63360;50.104;8.074;2023-05-28T04:43:40;6.72;;;2.63;;
74707;SDS011;63360;50.104;8.074;2023-05-28T04:46:07;7.13;;;2.77;;
74707;SDS011;63360;50.104;8.074;2023-05-28T04:48:35;8.40;;;3.20;;
74707;SDS011;63360;50.104;8.074;2023-05-28T04:51:01;5.88;;;2.50;;
74707;SDS011;63360;50.104;8.074;2023-05-28T04:53:31;7.28;;;2.70;;
74707;SDS011;63360;50.104;8.074;2023-05-28T04:56:00;6.57;;;2.95;;
74707;SDS011;63360;50.104;8.074;2023-05-28T04:58:27;7.73;;;2.77;;
74707;SDS011;63360;50.104;8.074;2023-05-28T05:00:53;6.25;;;2.85;;
74707;SDS011;63360;50.104;8.074;2023-05-28T05:03:19;7.68;;;3.28;;
74707;SDS011;63360;50.104;8.074;2023-05-28T05:05:46;6.50;;;2.80;;
74707;SDS011;63360;50.104;8.074;2023-05-28T05:08:13;7.13;;;2.70;;
74707;SDS011;63360;50.104;8.074;2023-05-28T05:10:40;7.87;;;3.20;;
74707;SDS011;63360;50.104;8.074;2023-05-28T05:13:06;7.15;;;2.58;;
74707;SDS011;63360;50.104;8.074;2023-05-28T05:15:33;9.38;;;2.75;;
74707;SDS011;63360;50.104;8.074;2023-05-28T05:17:59;6.28;;;2.72;;
74707;SDS011;63360;50.104;8.074;2023-05-28T05:20:26;7.85;;;3.00;;
74707;SDS011;63360;50.104;8.074;2023-05-28T05:22:53;8.23;;;2.60;;
74707;SDS011;63360;50.104;8.074;2023-05-28T05:25:19;6.57;;;2.95;;
74707;SDS011;63360;50.104;8.074;2023-05-28T05:27:48;6.75;;;3.00;;
74707;SDS011;63360;50.104;8.074;2023-05-28T05:30:16;5.80;;;2.45;;
74707;SDS011;63360;50.104;8.074;2023-05-28T05:32:42;8.23;;;2.80;;
74707;SDS011;63360;50.104;8.074;2023-05-28T05:35:09;9.00;;;2.80;;
74707;SDS011;63360;50.104;8.074;2023-05-28T05:37:35;9.15;;;2.85;;
74707;SDS011;63360;50.104;8.074;2023-05-28T05:40:03;7.18;;;2.90;;
74707;SDS011;63360;50.104;8.074;2023-05-28T05:42:31;6.75;;;2.80;;
74707;SDS011;63360;50.104;8.074;2023-05-28T05:44:58;6.40;;;2.80;;
74707;SDS011;63360;50.104;8.074;2023-05-28T05:47:24;6.57;;;2.80;;
74707;SDS011;63360;50.104;8.074;2023-05-28T05:49:51;8.32;;;2.95;;
74707;SDS011;63360;50.104;8.074;2023-05-28T05:52:17;6.35;;;3.25;;
74707;SDS011;63360;50.104;8.074;2023-05-28T05:54:44;7.57;;;2.85;;
74707;SDS011;63360;50.104;8.074;2023-05-28T05:57:11;9.50;;;3.22;;
74707;SDS011;63360;50.104;8.074;2023-05-28T05:59:37;7.20;;;3.10;;
74707;SDS011;63360;50.104;8.074;2023-05-28T06:02:04;8.70;;;2.90;;
74707;SDS011;63360;50.104;8.074;2023-05-28T06:04:31;5.85;;;2.95;;
74707;SDS011;63360;50.104;8.074;2023-05-28T06:07:02;8.40;;;3.10;;
74707;SDS011;63360;50.104;8.074;2023-05-28T06:09:30;8.60;;;3.20;;
74707;SDS011;63360;50.104;8.074;2023-05-28T06:11:57;7.57;;;2.93;;
74707;SDS011;63360;50.104;8.074;2023-05-28T06:14:24;7.22;;;3.20;;
74707;SDS011;63360;50.104;8.074;2023-05-28T06:16:50;6.75;;;3.15;;
74707;SDS011;63360;50.104;8.074;2023-05-28T06:19:18;5.15;;;2.97;;
74707;SDS011;63360;50.104;8.074;2023-05-28T06:21:44;6.85;;;3.08;;
74707;SDS011;63360;50.104;8.074;2023-05-28T06:24:11;9.30;;;3.20;;
74707;SDS011;63360;50.104;8.074;2023-05-28T06:26:37;6.18;;;3.17;;
74707;SDS011;63360;50.104;8.074;2023-05-28T06:29:04;6.80;;;2.85;;
74707;SDS011;63360;50.104;8.074;2023-05-28T06:31:32;5.22;;;2.70;;
74707;SDS011;63360;50.104;8.074;2023-05-28T06:33:59;8.52;;;3.05;;
74707;SDS011;63360;50.104;8.074;2023-05-28T06:36:25;9.00;;;3.07;;
74707;SDS011;63360;50.104;8.074;2023-05-28T06:38:51;7.75;;;3.20;;
74707;SDS011;63360;50.104;8.074;2023-05-28T06:41:18;9.15;;;3.50;;
74707;SDS011;63360;50.104;8.074;2023-05-28T06:43:44;7.45;;;3.22;;
74707;SDS011;63360;50.104;8.074;2023-05-28T06:46:12;8.65;;;2.72;;
74707;SDS011;63360;50.104;8.074;2023-05-28T06:48:39;7.37;;;3.20;;
74707;SDS011;63360;50.104;8.074;2023-05-28T06:51:07;6.82;;;2.90;;
74707;SDS011;63360;50.104;8.074;2023-05-28T06:53:33;7.15;;;3.10;;
74707;SDS011;63360;50.104;8.074;2023-05-28T06:56:00;7.47;;;3.15;;
74707;SDS011;63360;50.104;8.074;2023-05-28T06:58:26;8.85;;;3.10;;
74707;SDS011;63360;50.104;8.074;2023-05-28T07:00:52;5.23;;;2.60;;
74707;SDS011;63360;50.104;8.074;2023-05-28T07:03:19;5.25;;;2.85;;
74707;SDS011;63360;50.104;8.074;2023-05-28T07:05:45;9.50;;;3.30;;
74707;SDS011;63360;50.104;8.074;2023-05-28T07:08:12;6.20;;;2.92;;
74707;SDS011;63360;50.104;8.074;2023-05-28T07:10:39;8.20;;;3.20;;
74707;SDS011;63360;50.104;8.074;2023-05-28T07:13:05;7.17;;;3.10;;
74707;SDS011;63360;50.104;8.074;2023-05-28T07:15:32;6.25;;;3.10;;
74707;SDS011;63360;50.104;8.074;2023-05-28T07:17:58;6.63;;;2.97;;
74707;SDS011;63360;50.104;8.074;2023-05-28T07:20:27;5.75;;;3.03;;
74707;SDS011;63360;50.104;8.074;2023-05-28T07:22:54;6.50;;;3.50;;
74707;SDS011;63360;50.104;8.074;2023-05-28T07:25:21;6.03;;;2.60;;
74707;SDS011;63360;50.104;8.074;2023-05-28T07:27:48;6.20;;;3.00;;
74707;SDS011;63360;50.104;8.074;2023-05-28T07:30:14;5.18;;;2.85;;
74707;SDS011;63360;50.104;8.074;2023-05-28T07:32:42;6.30;;;3.10;;
74707;SDS011;63360;50.104;8.074;2023-05-28T07:35:09;5.28;;;2.70;;
74707;SDS011;63360;50.104;8.074;2023-05-28T07:37:35;5.30;;;2.80;;
74707;SDS011;63360;50.104;8.074;2023-05-28T07:40:02;6.47;;;3.08;;
74707;SDS011;63360;50.104;8.074;2023-05-28T07:42:31;6.60;;;3.10;;
74707;SDS011;63360;50.104;8.074;2023-05-28T07:44:57;6.07;;;3.15;;
74707;SDS011;63360;50.104;8.074;2023-05-28T07:47:24;6.57;;;2.72;;
74707;SDS011;63360;50.104;8.074;2023-05-28T07:49:51;6.70;;;3.17;;
74707;SDS011;63360;50.104;8.074;2023-05-28T07:52:17;5.95;;;2.72;;
74707;SDS011;63360;50.104;8.074;2023-05-28T07:54:44;8.63;;;3.05;;
74707;SDS011;63360;50.104;8.074;2023-05-28T07:57:10;7.38;;;2.97;;
74707;SDS011;63360;50.104;8.074;2023-05-28T07:59:37;7.72;;;2.97;;
74707;SDS011;63360;50.104;8.074;2023-05-28T08:02:03;9.77;;;3.20;;
74707;SDS011;63360;50.104;8.074;2023-05-28T08:04:30;6.20;;;2.90;;
74707;SDS011;63360;50.104;8.074;2023-05-28T08:06:57;7.70;;;2.90;;
74707;SDS011;63360;50.104;8.074;2023-05-28T08:09:23;9.25;;;3.00;;
74707;SDS011;63360;50.104;8.074;2023-05-28T08:11:49;6.03;;;3.03;;
74707;SDS011;63360;50.104;8.074;2023-05-28T08:14:16;7.33;;;3.20;;
74707;SDS011;63360;50.104;8.074;2023-05-28T08:16:42;5.97;;;2.65;;
74707;SDS011;63360;50.104;8.074;2023-05-28T08:19:09;6.90;;;3.17;;
74707;SDS011;63360;50.104;8.074;2023-05-28T08:21:35;9.00;;;3.00;;
74707;SDS011;63360;50.104;8.074;2023-05-28T08:24:05;6.68;;;3.00;;
74707;SDS011;63360;50.104;8.074;2023-05-28T08:26:32;6.50;;;3.00;;
74707;SDS011;63360;50.104;8.074;2023-05-28T08:28:58;7.53;;;3.20;;
74707;SDS011;63360;50.104;8.074;2023-05-28T08:31:25;6.65;;;3.03;;
74707;SDS011;63360;50.104;8.074;2023-05-28T08:33:51;7.18;;;2.90;;
74707;SDS011;63360;50.104;8.074;2023-05-28T08:36:18;6.15;;;2.80;;
74707;SDS011;63360;50.104;8.074;2023-05-28T08:38:44;5.83;;;2.80;;
74707;SDS011;63360;50.104;8.074;2023-05-28T08:41:11;7.03;;;2.63;;
74707;SDS011;63360;50.104;8.074;2023-05-28T08:43:38;6.07;;;2.70;;
74707;SDS011;63360;50.104;8.074;2023-05-28T08:46:04;7.78;;;3.35;;
74707;SDS011;63360;50.104;8.074;2023-05-28T08:48:32;7.30;;;3.08;;
74707;SDS011;63360;50.104;8.074;2023-05-28T08:51:00;7.70;;;3.23;;
74707;SDS011;63360;50.104;8.074;2023-05-28T08:53:27;6.53;;;2.72;;
74707;SDS011;63360;50.104;8.074;2023-05-28T08:56:02;6.10;;;3.00;;
74707;SDS011;63360;50.104;8.074;2023-05-28T08:58:29;5.88;;;3.00;;
74707;SDS011;63360;50.104;8.074;2023-05-28T09:00:55;6.20;;;3.03;;
74707;SDS011;63360;50.104;8.074;2023-05-28T09:03:22;6.53;;;2.97;;
74707;SDS011;63360;50.104;8.074;2023-05-28T09:05:49;6.13;;;3.15;;
74707;SDS011;63360;50.104;8.074;2023-05-28T09:08:16;6.47;;;2.90;;
74707;SDS011;63360;50.104;8.074;2023-05-28T09:10:43;7.15;;;2.97;;
74707;SDS011;63360;50.104;8.074;2023-05-28T09:13:09;7.10;;;3.25;;
74707;SDS011;63360;50.104;8.074;2023-05-28T09:15:36;4.73;;;2.60;;
74707;SDS011;63360;50.104;8.074;2023-05-28T09:18:04;8.38;;;3.00;;
74707;SDS011;63360;50.104;8.074;2023-05-28T09:20:31;6.03;;;3.00;;
74707;SDS011;63360;50.104;8.074;2023-05-28T09:23:05;6.68;;;2.92;;
74707;SDS011;63360;50.104;8.074;2023-05-28T09:25:33;6.60;;;2.83;;
74707;SDS011;63360;50.104;8.074;2023-05-28T09:28:02;6.63;;;2.63;;
74707;SDS011;63360;50.104;8.074;2023-05-28T09:30:29;5.82;;;2.92;;
74707;SDS011;63360;50.104;8.074;2023-05-28T09:33:02;7.85;;;3.17;;
74707;SDS011;63360;50.104;8.074;2023-05-28T09:35:29;7.65;;;2.60;;
74707;SDS011;63360;50.104;8.074;2023-05-28T09:38:14;5.82;;;2.78;;
74707;SDS011;63360;50.104;8.074;2023-05-28T09:40:42;6.77;;;3.10;;
74707;SDS011;63360;50.104;8.074;2023-05-28T09:43:09;8.15;;;3.28;;
74707;SDS011;63360;50.104;8.074;2023-05-28T09:45:37;6.88;;;3.00;;
74707;SDS011;63360;50.104;8.074;2023-05-28T09:48:03;6.68;;;3.10;;
74707;SDS011;63360;50.104;8.074;2023-05-28T09:50:30;7.22;;;2.85;;
74707;SDS011;63360;50.104;8.074;2023-05-28T09:52:57;5.67;;;2.80;;
74707;SDS011;63360;50.104;8.074;2023-05-28T09:55:25;5.95;;;3.10;;
74707;SDS011;63360;50.104;8.074;2023-05-28T09:58:03;8.15;;;3.58;;
74707;SDS011;63360;50.104;8.074;2023-05-28T10:00:43;7.43;;;2.95;;
74707;SDS011;63360;50.104;8.074;2023-05-28T10:05:59;5.83;;;2.90;;
74707;SDS011;63360;50.104;8.074;2023-05-28T10:08:27;8.30;;;2.95;;
74707;SDS011;63360;50.104;8.074;2023-05-28T10:10:54;9.23;;;3.22;;
74707;SDS011;63360;50.104;8.074;2023-05-28T10:13:22;6.85;;;3.13;;
74707;SDS011;63360;50.104;8.074;2023-05-28T10:15:49;7.95;;;3.38;;
74707;SDS011;63360;50.104;8.074;2023-05-28T10:18:17;7.57;;;3.10;;
74707;SDS011;63360;50.104;8.074;2023-05-28T10:20:45;8.05;;;3.38;;
74707;SDS011;63360;50.104;8.074;2023-05-28T10:23:12;5.75;;;3.10;;
74707;SDS011;63360;50.104;8.074;2023-05-28T10:25:40;9.00;;;3.75;;
74707;SDS011;63360;50.104;8.074;2023-05-28T10:28:06;6.05;;;3.00;;
74707;SDS011;63360;50.104;8.074;2023-05-28T10:33:07;6.75;;;2.97;;
74707;SDS011;63360;50.104;8.074;2023-05-28T10:35:35;6.72;;;3.17;;
74707;SDS011;63360;50.104;8.074;2023-05-28T10:38:17;7.20;;;3.00;;
74707;SDS011;63360;50.104;8.074;2023-05-28T10:40:44;7.70;;;3.47;;
74707;SDS011;63360;50.104;8.074;2023-05-28T10:49:04;6.00;;;2.63;;
74707;SDS011;63360;50.104;8.074;2023-05-28T10:54:24;6.47;;;3.05;;
74707;SDS011;63360;50.104;8.074;2023-05-28T10:57:06;6.20;;;2.93;;
74707;SDS011;63360;50.104;8.074;2023-05-28T10:59:39;7.05;;;2.95;;
74707;SDS011;63360;50.104;8.074;2023-05-28T11:02:21;9.98;;;3.20;;
74707;SDS011;63360;50.104;8.074;2023-05-28T11:04:55;8.98;;;3.33;;
74707;SDS011;63360;50.104;8.074;2023-05-28T11:07:28;8.40;;;3.13;;
74707;SDS011;63360;50.104;8.074;2023-05-28T11:10:03;7.50;;;3.03;;
74707;SDS011;63360;50.104;8.074;2023-05-28T11:12:31;9.30;;;3.30;;
74707;SDS011;63360;50.104;8.074;2023-05-28T11:15:00;8.40;;;3.60;;
74707;SDS011;63360;50.104;8.074;2023-05-28T11:17:27;6.68;;;3.20;;
74707;SDS011;63360;50.104;8.074;2023-05-28T11:19:53;6.75;;;2.95;;
74707;SDS011;63360;50.104;8.074;2023-05-28T11:22:20;9.07;;;3.10;;
74707;SDS011;63360;50.104;8.074;2023-05-28T11:24:57;10.15;;;3.28;;
74707;SDS011;63360;50.104;8.074;2023-05-28T11:27:29;8.95;;;3.40;;
74707;SDS011;63360;50.104;8.074;2023-05-28T11:29:57;8.98;;;3.38;;
74707;SDS011;63360;50.104;8.074;2023-05-28T11:32:27;6.93;;;3.35;;
74707;SDS011;63360;50.104;8.074;2023-05-28T11:34:55;6.23;;;3.13;;
74707;SDS011;63360;50.104;8.074;2023-05-28T11:37:22;7.07;;;3.40;;
74707;SDS011;63360;50.104;8.074;2023-05-28T11:39:54;8.63;;;3.20;;
74707;SDS011;63360;50.104;8.074;2023-05-28T11:42:22;7.65;;;3.35;;
74707;SDS011;63360;50.104;8.074;2023-05-28T11:44:49;7.85;;;3.35;;
74707;SDS011;63360;50.104;8.074;2023-05-28T11:47:17;6.60;;;3.53;;
74707;SDS011;63360;50.104;8.074;2023-05-28T11:49:44;6.07;;;3.13;;
74707;SDS011;63360;50.104;8.074;2023-05-28T11:52:13;10.65;;;5.78;;
74707;SDS011;63360;50.104;8.074;2023-05-28T11:54:42;8.55;;;3.50;;
74707;SDS011;63360;50.104;8.074;2023-05-28T11:57:11;7.78;;;3.60;;
74707;SDS011;63360;50.104;8.074;2023-05-28T12:02:32;9.98;;;5.15;;
74707;SDS011;63360;50.104;8.074;2023-05-28T12:05:00;10.23;;;5.10;;
74707;SDS011;63360;50.104;8.074;2023-05-28T12:07:32;8.23;;;3.60;;
74707;SDS011;63360;50.104;8.074;2023-05-28T12:10:07;8.55;;;3.70;;
74707;SDS011;63360;50.104;8.074;2023-05-28T12:12:43;8.17;;;3.70;;
74707;SDS011;63360;50.104;8.074;2023-05-28T12:15:11;6.85;;;3.53;;
74707;SDS011;63360;50.104;8.074;2023-05-28T12:17:39;7.82;;;3.80;;
74707;SDS011;63360;50.104;8.074;2023-05-28T12:22:39;7.95;;;4.00;;
74707;SDS011;63360;50.104;8.074;2023-05-28T12:25:06;7.20;;;3.50;;
74707;SDS011;63360;50.104;8.074;2023-05-28T12:27:34;8.85;;;4.40;;
74707;SDS011;63360;50.104;8.074;2023-05-28T12:30:01;8.40;;;4.10;;
74707;SDS011;63360;50.104;8.074;2023-05-28T12:32:29;6.82;;;3.70;;
74707;SDS011;63360;50.104;8.074;2023-05-28T12:34:55;8.98;;;3.90;;
74707;SDS011;63360;50.104;8.074;2023-05-28T12:37:22;6.57;;;3.50;;
74707;SDS011;63360;50.104;8.074;2023-05-28T12:39:50;9.82;;;3.80;;
74707;SDS011;63360;50.104;8.074;2023-05-28T12:42:17;8.68;;;3.80;;
74707;SDS011;63360;50.104;8.074;2023-05-28T12:44:44;7.60;;;3.78;;
74707;SDS011;63360;50.104;8.074;2023-05-28T12:47:11;7.85;;;3.58;;
74707;SDS011;63360;50.104;8.074;2023-05-28T12:49:38;7.07;;;3.40;;
74707;SDS011;63360;50.104;8.074;2023-05-28T12:52:04;7.10;;;3.28;;
74707;SDS011;63360;50.104;8.074;2023-05-28T12:54:32;7.78;;;3.70;;
74707;SDS011;63360;50.104;8.074;2023-05-28T12:56:59;8.05;;;3.33;;
74707;SDS011;63360;50.104;8.074;2023-05-28T12:59:27;7.22;;;3.63;;
74707;SDS011;63360;50.104;8.074;2023-05-28T13:01:54;7.70;;;3.27;;
74707;SDS011;63360;50.104;8.074;2023-05-28T13:04:21;8.18;;;3.50;;
74707;SDS011;63360;50.104;8.074;2023-05-28T13:06:48;7.50;;;3.42;;
74707;SDS011;63360;50.104;8.074;2023-05-28T13:09:17;6.72;;;3.20;;
74707;SDS011;63360;50.104;8.074;2023-05-28T13:11:44;6.88;;;3.22;;
74707;SDS011;63360;50.104;8.074;2023-05-28T13:14:10;7.70;;;3.50;;
74707;SDS011;63360;50.104;8.074;2023-05-28T13:16:37;6.65;;;2.95;;
74707;SDS011;63360;50.104;8.074;2023-05-28T13:19:04;8.18;;;3.40;;
74707;SDS011;63360;50.104;8.074;2023-05-28T13:21:30;7.05;;;3.33;;
74707;SDS011;63360;50.104;8.074;2023-05-28T13:23:58;7.00;;;3.35;;
74707;SDS011;63360;50.104;8.074;2023-05-28T13:26:27;7.80;;;3.30;;
74707;SDS011;63360;50.104;8.074;2023-05-28T13:28:55;8.07;;;3.47;;
74707;SDS011;63360;50.104;8.074;2023-05-28T13:31:21;6.25;;;3.33;;
74707;SDS011;63360;50.104;8.074;2023-05-28T13:33:48;5.90;;;3.20;;
74707;SDS011;63360;50.104;8.074;2023-05-28T13:36:15;6.72;;;3.30;;
74707;SDS011;63360;50.104;8.074;2023-05-28T13:38:41;7.73;;;3.60;;
74707;SDS011;63360;50.104;8.074;2023-05-28T13:41:09;7.22;;;3.40;;
74707;SDS011;63360;50.104;8.074;2023-05-28T13:43:37;8.57;;;3.55;;
74707;SDS011;63360;50.104;8.074;2023-05-28T13:46:04;6.60;;;3.20;;
74707;SDS011;63360;50.104;8.074;2023-05-28T13:48:31;6.93;;;3.10;;
74707;SDS011;63360;50.104;8.074;2023-05-28T13:50:58;9.13;;;3.40;;
74707;SDS011;63360;50.104;8.074;2023-05-28T13:53:28;7.82;;;3.40;;
74707;SDS011;63360;50.104;8.074;2023-05-28T13:55:56;6.70;;;3.40;;
74707;SDS011;63360;50.104;8.074;2023-05-28T13:58:23;8.07;;;3.35;;
74707;SDS011;63360;50.104;8.074;2023-05-28T14:00:50;6.68;;;3.25;;
74707;SDS011;63360;50.104;8.074;2023-05-28T14:03:17;7.97;;;3.37;;
74707;SDS011;63360;50.104;8.074;2023-05-28T14:05:44;7.03;;;3.40;;
74707;SDS011;63360;50.104;8.074;2023-05-28T14:08:13;6.57;;;3.30;;
74707;SDS011;63360;50.104;8.074;2023-05-28T14:10:40;7.70;;;3.47;;
74707;SDS011;63360;50.104;8.074;2023-05-28T14:13:07;6.65;;;3.13;;
74707;SDS011;63360;50.104;8.074;2023-05-28T14:15:33;6.33;;;3.23;;
74707;SDS011;63360;50.104;8.074;2023-05-28T14:18:00;8.18;;;3.67;;
74707;SDS011;63360;50.104;8.074;2023-05-28T14:20:26;7.18;;;3.40;;
74707;SDS011;63360;50.104;8.074;2023-05-28T14:22:53;6.45;;;3.20;;
74707;SDS011;63360;50.104;8.074;2023-05-28T14:25:20;8.65;;;3.50;;
74707;SDS011;63360;50.104;8.074;2023-05-28T14:27:46;9.47;;;3.50;;
74707;SDS011;63360;50.104;8.074;2023-05-28T14:30:28;7.70;;;3.20;;
74707;SDS011;63360;50.104;8.074;2023-05-28T14:32:55;7.43;;;3.33;;
74707;SDS011;63360;50.104;8.074;2023-05-28T14:35:21;6.72;;;3.35;;
74707;SDS011;63360;50.104;8.074;2023-05-28T14:37:48;6.35;;;3.40;;
74707;SDS011;63360;50.104;8.074;2023-05-28T14:40:17;7.47;;;3.27;;
74707;SDS011;63360;50.104;8.074;2023-05-28T14:42:44;6.85;;;3.13;;
74707;SDS011;63360;50.104;8.074;2023-05-28T14:45:11;7.13;;;3.40;;
74707;SDS011;63360;50.104;8.074;2023-05-28T14:47:38;7.47;;;3.33;;
74707;SDS011;63360;50.104;8.074;2023-05-28T14:50:06;7.55;;;3.30;;
74707;SDS011;63360;50.104;8.074;2023-05-28T14:52:33;6.77;;;3.23;;
74707;SDS011;63360;50.104;8.074;2023-05-28T14:55:00;6.10;;;3.55;;
74707;SDS011;63360;50.104;8.074;2023-05-28T14:57:27;6.07;;;3.22;;
74707;SDS011;63360;50.104;8.074;2023-05-28T14:59:58;8.07;;;3.13;;
74707;SDS011;63360;50.104;8.074;2023-05-28T15:02:33;6.55;;;3.20;;
74707;SDS011;63360;50.104;8.074;2023-05-28T15:05:00;7.13;;;3.27;;
74707;SDS011;63360;50.104;8.074;2023-05-28T15:07:27;6.78;;;3.03;;
74707;SDS011;63360;50.104;8.074;2023-05-28T15:09:53;9.75;;;3.33;;